sensor_id;sensor_type;location;lat;lon;timestamp;P1;durP1;ratioP1;P2;durP2;ratioP2
73776;SDS011;62088;50.240;2.696;2023-08-06T00:02:22;9.05;;;1.70;;
73776;SDS011;62088;50.240;2.696;2023-08-06T00:04:49;6.03;;;1.20;;
73776;SDS011;62088;50.240;2.696;2023-08-06T00:07:17;7.57;;;1.48;;
73776;SDS011;62088;50.240;2.696;2023-08-06T00:09:44;4.97;;;1.55;;
73776;SDS011;62088;50.240;2.696;2023-08-06T00:12:11;13.50;;;1.30;;
73776;SDS011;62088;50.240;2.696;2023-08-06T00:14:38;6.93;;;1.40;;
73776;SDS011;62088;50.240;2.696;2023-08-06T00:17:05;5.40;;;1.23;;
73776;SDS011;62088;50.240;2.696;2023-08-06T00:19:32;6.90;;;1.35;;
73776;SDS011;62088;50.240;2.696;2023-08-06T00:21:59;8.25;;;1.42;;
73776;SDS011;62088;50.240;2.696;2023-08-06T00:24:26;10.93;;;1.40;;
73776;SDS011;62088;50.240;2.696;2023-08-06T00:26:53;8.68;;;1.60;;
73776;SDS011;62088;50.240;2.696;2023-08-06T00:29:20;8.02;;;1.50;;
73776;SDS011;62088;50.240;2.696;2023-08-06T00:31:47;7.43;;;1.23;;
73776;SDS011;62088;50.240;2.696;2023-08-06T00:34:15;2.72;;;0.82;;
73776;SDS011;62088;50.240;2.696;2023-08-06T00:36:42;3.70;;;0.98;;
73776;SDS011;62088;50.240;2.696;2023-08-06T00:39:09;2.75;;;0.93;;
73776;SDS011;62088;50.240;2.696;2023-08-06T00:41:36;6.15;;;1.30;;
73776;SDS011;62088;50.240;2.696;2023-08-06T00:44:03;5.20;;;1.30;;
73776;SDS011;62088;50.240;2.696;2023-08-06T00:46:32;3.58;;;0.77;;
73776;SDS011;62088;50.240;2.696;2023-08-06T00:49:00;5.90;;;0.90;;
73776;SDS011;62088;50.240;2.696;2023-08-06T00:51:27;3.75;;;0.80;;
73776;SDS011;62088;50.240;2.696;2023-08-06T00:53:55;2.58;;;0.90;;
73776;SDS011;62088;50.240;2.696;2023-08-06T00:56:22;2.65;;;0.70;;
73776;SDS011;62088;50.240;2.696;2023-08-06T00:58:51;3.20;;;0.80;;
73776;SDS011;62088;50.240;2.696;2023-08-06T01:01:19;4.22;;;0.70;;
73776;SDS011;62088;50.240;2.696;2023-08-06T01:03:46;2.60;;;1.02;;
73776;SDS011;62088;50.240;2.696;2023-08-06T01:06:13;5.30;;;0.80;;
73776;SDS011;62088;50.240;2.696;2023-08-06T01:09:02;5.30;;;0.70;;
73776;SDS011;62088;50.240;2.696;2023-08-06T01:14:46;2.22;;;0.60;;
73776;SDS011;62088;50.240;2.696;2023-08-06T01:17:20;1.98;;;0.70;;
73776;SDS011;62088;50.240;2.696;2023-08-06T01:19:48;4.20;;;0.93;;
73776;SDS011;62088;50.240;2.696;2023-08-06T01:22:15;4.07;;;0.73;;
73776;SDS011;62088;50.240;2.696;2023-08-06T01:24:43;3.30;;;0.90;;
73776;SDS011;62088;50.240;2.696;2023-08-06T01:27:17;4.80;;;1.17;;
73776;SDS011;62088;50.240;2.696;2023-08-06T01:29:49;3.10;;;0.90;;
73776;SDS011;62088;50.240;2.696;2023-08-06T01:32:25;4.50;;;1.02;;
73776;SDS011;62088;50.240;2.696;2023-08-06T01:34:53;3.58;;;1.38;;
73776;SDS011;62088;50.240;2.696;2023-08-06T01:37:21;4.18;;;1.50;;
73776;SDS011;62088;50.240;2.696;2023-08-06T01:39:50;4.25;;;1.33;;
73776;SDS011;62088;50.240;2.696;2023-08-06T01:42:17;5.30;;;1.40;;
73776;SDS011;62088;50.240;2.696;2023-08-06T01:44:46;8.80;;;1.67;;
73776;SDS011;62088;50.240;2.696;2023-08-06T01:47:13;5.95;;;1.60;;
73776;SDS011;62088;50.240;2.696;2023-08-06T01:49:40;5.82;;;1.92;;
73776;SDS011;62088;50.240;2.696;2023-08-06T01:52:07;10.20;;;2.22;;
73776;SDS011;62088;50.240;2.696;2023-08-06T01:54:34;8.85;;;2.42;;
73776;SDS011;62088;50.240;2.696;2023-08-06T01:57:01;6.00;;;2.17;;
73776;SDS011;62088;50.240;2.696;2023-08-06T01:59:28;7.72;;;2.40;;
73776;SDS011;62088;50.240;2.696;2023-08-06T02:01:56;12.93;;;2.70;;
73776;SDS011;62088;50.240;2.696;2023-08-06T02:04:24;6.65;;;2.50;;
73776;SDS011;62088;50.240;2.696;2023-08-06T02:06:51;5.22;;;2.45;;
73776;SDS011;62088;50.240;2.696;2023-08-06T02:09:18;12.27;;;2.70;;
73776;SDS011;62088;50.240;2.696;2023-08-06T02:11:45;7.07;;;2.60;;
73776;SDS011;62088;50.240;2.696;2023-08-06T02:14:12;8.18;;;2.25;;
73776;SDS011;62088;50.240;2.696;2023-08-06T02:16:40;7.03;;;2.17;;
73776;SDS011;62088;50.240;2.696;2023-08-06T02:19:07;11.80;;;2.47;;
73776;SDS011;62088;50.240;2.696;2023-08-06T02:21:34;6.30;;;2.92;;
73776;SDS011;62088;50.240;2.696;2023-08-06T02:24:01;10.18;;;2.65;;
73776;SDS011;62088;50.240;2.696;2023-08-06T02:26:28;7.53;;;2.65;;
73776;SDS011;62088;50.240;2.696;2023-08-06T02:28:56;6.15;;;2.88;;
73776;SDS011;62088;50.240;2.696;2023-08-06T02:31:23;8.02;;;3.05;;
73776;SDS011;62088;50.240;2.696;2023-08-06T02:33:50;12.32;;;4.22;;
73776;SDS011;62088;50.240;2.696;2023-08-06T02:36:17;8.07;;;3.83;;
73776;SDS011;62088;50.240;2.696;2023-08-06T02:38:44;11.00;;;4.13;;
73776;SDS011;62088;50.240;2.696;2023-08-06T02:41:11;9.82;;;3.60;;
73776;SDS011;62088;50.240;2.696;2023-08-06T02:43:38;9.20;;;4.45;;
73776;SDS011;62088;50.240;2.696;2023-08-06T02:46:06;8.63;;;4.30;;
73776;SDS011;62088;50.240;2.696;2023-08-06T02:48:33;10.35;;;4.10;;
73776;SDS011;62088;50.240;2.696;2023-08-06T02:51:01;11.15;;;4.28;;
73776;SDS011;62088;50.240;2.696;2023-08-06T02:53:29;10.80;;;4.38;;
73776;SDS011;62088;50.240;2.696;2023-08-06T02:56:02;9.68;;;4.43;;
73776;SDS011;62088;50.240;2.696;2023-08-06T02:59:01;9.43;;;4.38;;
73776;SDS011;62088;50.240;2.696;2023-08-06T03:01:42;11.70;;;4.95;;
73776;SDS011;62088;50.240;2.696;2023-08-06T03:04:17;8.90;;;4.15;;
73776;SDS011;62088;50.240;2.696;2023-08-06T03:06:46;10.82;;;4.57;;
73776;SDS011;62088;50.240;2.696;2023-08-06T03:09:15;8.23;;;3.92;;
73776;SDS011;62088;50.240;2.696;2023-08-06T03:11:43;7.82;;;4.03;;
73776;SDS011;62088;50.240;2.696;2023-08-06T03:14:13;9.15;;;4.47;;
73776;SDS011;62088;50.240;2.696;2023-08-06T03:16:42;11.05;;;4.13;;
73776;SDS011;62088;50.240;2.696;2023-08-06T03:19:11;9.07;;;4.50;;
73776;SDS011;62088;50.240;2.696;2023-08-06T03:21:38;9.15;;;4.10;;
73776;SDS011;62088;50.240;2.696;2023-08-06T03:24:05;6.75;;;2.55;;
73776;SDS011;62088;50.240;2.696;2023-08-06T03:26:34;13.98;;;4.47;;
73776;SDS011;62088;50.240;2.696;2023-08-06T03:29:01;11.85;;;4.30;;
73776;SDS011;62088;50.240;2.696;2023-08-06T03:31:32;9.57;;;4.18;;
73776;SDS011;62088;50.240;2.696;2023-08-06T03:33:59;11.27;;;4.35;;
73776;SDS011;62088;50.240;2.696;2023-08-06T03:36:29;9.18;;;4.20;;
73776;SDS011;62088;50.240;2.696;2023-08-06T03:38:56;11.27;;;4.22;;
73776;SDS011;62088;50.240;2.696;2023-08-06T03:41:23;9.55;;;4.78;;
73776;SDS011;62088;50.240;2.696;2023-08-06T03:43:51;5.88;;;3.20;;
73776;SDS011;62088;50.240;2.696;2023-08-06T03:46:23;11.20;;;4.13;;
73776;SDS011;62088;50.240;2.696;2023-08-06T03:48:52;6.90;;;3.72;;
73776;SDS011;62088;50.240;2.696;2023-08-06T03:51:19;9.25;;;3.58;;
73776;SDS011;62088;50.240;2.696;2023-08-06T03:53:47;22.75;;;3.67;;
73776;SDS011;62088;50.240;2.696;2023-08-06T03:56:15;8.98;;;3.42;;
73776;SDS011;62088;50.240;2.696;2023-08-06T03:58:42;9.13;;;3.08;;
73776;SDS011;62088;50.240;2.696;2023-08-06T04:01:09;7.18;;;2.53;;
73776;SDS011;62088;50.240;2.696;2023-08-06T04:03:42;5.57;;;2.63;;
73776;SDS011;62088;50.240;2.696;2023-08-06T04:06:09;7.05;;;2.90;;
73776;SDS011;62088;50.240;2.696;2023-08-06T04:08:36;10.88;;;2.65;;
73776;SDS011;62088;50.240;2.696;2023-08-06T04:11:03;8.48;;;2.80;;
73776;SDS011;62088;50.240;2.696;2023-08-06T04:13:30;8.05;;;2.50;;
73776;SDS011;62088;50.240;2.696;2023-08-06T04:16:01;7.40;;;2.38;;
73776;SDS011;62088;50.240;2.696;2023-08-06T04:18:30;6.55;;;2.30;;
73776;SDS011;62088;50.240;2.696;2023-08-06T04:20:57;4.90;;;1.98;;
73776;SDS011;62088;50.240;2.696;2023-08-06T04:23:24;6.93;;;2.30;;
73776;SDS011;62088;50.240;2.696;2023-08-06T04:25:58;9.43;;;2.13;;
73776;SDS011;62088;50.240;2.696;2023-08-06T04:28:29;5.10;;;1.98;;
73776;SDS011;62088;50.240;2.696;2023-08-06T04:30:58;4.43;;;2.00;;
73776;SDS011;62088;50.240;2.696;2023-08-06T04:33:27;5.90;;;2.25;;
73776;SDS011;62088;50.240;2.696;2023-08-06T04:35:56;6.25;;;2.05;;
73776;SDS011;62088;50.240;2.696;2023-08-06T04:38:26;9.05;;;2.28;;
73776;SDS011;62088;50.240;2.696;2023-08-06T04:40:54;7.45;;;2.30;;
73776;SDS011;62088;50.240;2.696;2023-08-06T04:43:22;6.90;;;2.25;;
73776;SDS011;62088;50.240;2.696;2023-08-06T04:45:50;8.23;;;2.33;;
73776;SDS011;62088;50.240;2.696;2023-08-06T04:48:17;5.60;;;2.42;;
73776;SDS011;62088;50.240;2.696;2023-08-06T04:50:45;6.82;;;2.70;;
73776;SDS011;62088;50.240;2.696;2023-08-06T04:53:12;7.63;;;2.53;;
73776;SDS011;62088;50.240;2.696;2023-08-06T04:55:40;7.20;;;2.55;;
73776;SDS011;62088;50.240;2.696;2023-08-06T04:58:09;8.77;;;2.83;;
73776;SDS011;62088;50.240;2.696;2023-08-06T05:00:36;10.82;;;3.00;;
73776;SDS011;62088;50.240;2.696;2023-08-06T05:03:04;6.70;;;2.40;;
73776;SDS011;62088;50.240;2.696;2023-08-06T05:05:32;7.95;;;2.70;;
73776;SDS011;62088;50.240;2.696;2023-08-06T05:07:59;8.13;;;2.85;;
73776;SDS011;62088;50.240;2.696;2023-08-06T05:10:26;9.15;;;3.00;;
73776;SDS011;62088;50.240;2.696;2023-08-06T05:12:53;9.25;;;2.75;;
73776;SDS011;62088;50.240;2.696;2023-08-06T05:15:21;9.45;;;2.65;;
73776;SDS011;62088;50.240;2.696;2023-08-06T05:17:48;9.27;;;3.08;;
73776;SDS011;62088;50.240;2.696;2023-08-06T05:20:15;8.15;;;2.78;;
73776;SDS011;62088;50.240;2.696;2023-08-06T05:22:43;6.45;;;2.40;;
73776;SDS011;62088;50.240;2.696;2023-08-06T05:25:13;10.88;;;3.53;;
73776;SDS011;62088;50.240;2.696;2023-08-06T05:27:41;12.50;;;2.83;;
73776;SDS011;62088;50.240;2.696;2023-08-06T05:30:08;15.52;;;2.92;;
73776;SDS011;62088;50.240;2.696;2023-08-06T05:32:35;7.35;;;2.55;;
73776;SDS011;62088;50.240;2.696;2023-08-06T05:35:03;8.05;;;2.13;;
73776;SDS011;62088;50.240;2.696;2023-08-06T05:37:30;8.70;;;2.70;;
73776;SDS011;62088;50.240;2.696;2023-08-06T05:39:57;6.50;;;2.60;;
73776;SDS011;62088;50.240;2.696;2023-08-06T05:42:24;10.30;;;2.75;;
73776;SDS011;62088;50.240;2.696;2023-08-06T05:44:51;6.00;;;2.40;;
73776;SDS011;62088;50.240;2.696;2023-08-06T05:47:18;9.18;;;2.75;;
73776;SDS011;62088;50.240;2.696;2023-08-06T05:49:46;3.60;;;1.30;;
73776;SDS011;62088;50.240;2.696;2023-08-06T05:52:13;8.13;;;2.70;;
73776;SDS011;62088;50.240;2.696;2023-08-06T05:54:40;6.50;;;2.70;;
73776;SDS011;62088;50.240;2.696;2023-08-06T05:57:07;7.80;;;2.60;;
73776;SDS011;62088;50.240;2.696;2023-08-06T05:59:34;7.78;;;2.80;;
73776;SDS011;62088;50.240;2.696;2023-08-06T06:02:01;6.78;;;2.63;;
73776;SDS011;62088;50.240;2.696;2023-08-06T06:04:28;7.25;;;2.65;;
73776;SDS011;62088;50.240;2.696;2023-08-06T06:06:55;12.10;;;2.83;;
73776;SDS011;62088;50.240;2.696;2023-08-06T06:09:23;5.20;;;2.58;;
73776;SDS011;62088;50.240;2.696;2023-08-06T06:11:50;13.25;;;2.92;;
73776;SDS011;62088;50.240;2.696;2023-08-06T06:14:18;9.43;;;2.78;;
73776;SDS011;62088;50.240;2.696;2023-08-06T06:16:45;5.70;;;2.70;;
73776;SDS011;62088;50.240;2.696;2023-08-06T06:19:13;5.10;;;2.33;;
73776;SDS011;62088;50.240;2.696;2023-08-06T06:21:40;6.97;;;2.65;;
73776;SDS011;62088;50.240;2.696;2023-08-06T06:24:07;6.93;;;2.60;;
73776;SDS011;62088;50.240;2.696;2023-08-06T06:26:34;7.97;;;2.83;;
73776;SDS011;62088;50.240;2.696;2023-08-06T06:29:01;9.30;;;2.97;;
73776;SDS011;62088;50.240;2.696;2023-08-06T06:31:31;10.10;;;3.00;;
73776;SDS011;62088;50.240;2.696;2023-08-06T06:33:58;7.70;;;2.63;;
73776;SDS011;62088;50.240;2.696;2023-08-06T06:36:25;7.90;;;2.70;;
73776;SDS011;62088;50.240;2.696;2023-08-06T06:38:52;7.13;;;2.83;;
73776;SDS011;62088;50.240;2.696;2023-08-06T06:41:19;9.48;;;3.22;;
73776;SDS011;62088;50.240;2.696;2023-08-06T06:43:46;8.60;;;3.08;;
73776;SDS011;62088;50.240;2.696;2023-08-06T06:46:13;8.93;;;3.10;;
73776;SDS011;62088;50.240;2.696;2023-08-06T06:48:40;9.18;;;3.20;;
73776;SDS011;62088;50.240;2.696;2023-08-06T06:51:07;10.57;;;2.70;;
73776;SDS011;62088;50.240;2.696;2023-08-06T06:53:34;9.88;;;2.92;;
73776;SDS011;62088;50.240;2.696;2023-08-06T06:56:02;6.70;;;2.50;;
73776;SDS011;62088;50.240;2.696;2023-08-06T06:58:31;6.82;;;2.58;;
73776;SDS011;62088;50.240;2.696;2023-08-06T07:00:58;6.03;;;2.70;;
73776;SDS011;62088;50.240;2.696;2023-08-06T07:03:25;8.95;;;2.65;;
73776;SDS011;62088;50.240;2.696;2023-08-06T07:05:56;6.88;;;2.50;;
73776;SDS011;62088;50.240;2.696;2023-08-06T07:08:25;7.43;;;2.80;;
73776;SDS011;62088;50.240;2.696;2023-08-06T07:11:01;11.13;;;2.97;;
73776;SDS011;62088;50.240;2.696;2023-08-06T07:13:30;5.75;;;2.67;;
73776;SDS011;62088;50.240;2.696;2023-08-06T07:15:58;10.38;;;3.10;;
73776;SDS011;62088;50.240;2.696;2023-08-06T07:18:25;6.93;;;2.88;;
73776;SDS011;62088;50.240;2.696;2023-08-06T07:20:53;6.00;;;2.50;;
73776;SDS011;62088;50.240;2.696;2023-08-06T07:23:21;8.90;;;2.55;;
73776;SDS011;62088;50.240;2.696;2023-08-06T07:25:50;12.43;;;2.97;;
73776;SDS011;62088;50.240;2.696;2023-08-06T07:28:17;8.55;;;2.50;;
73776;SDS011;62088;50.240;2.696;2023-08-06T07:30:45;7.30;;;2.95;;
73776;SDS011;62088;50.240;2.696;2023-08-06T07:33:12;6.03;;;2.28;;
73776;SDS011;62088;50.240;2.696;2023-08-06T07:35:39;6.30;;;2.40;;
73776;SDS011;62088;50.240;2.696;2023-08-06T07:38:06;6.63;;;2.33;;
73776;SDS011;62088;50.240;2.696;2023-08-06T07:40:35;5.22;;;2.30;;
73776;SDS011;62088;50.240;2.696;2023-08-06T07:43:03;8.68;;;2.38;;
73776;SDS011;62088;50.240;2.696;2023-08-06T07:45:34;6.32;;;2.53;;
73776;SDS011;62088;50.240;2.696;2023-08-06T07:48:03;5.97;;;2.40;;
73776;SDS011;62088;50.240;2.696;2023-08-06T07:50:31;4.97;;;2.35;;
73776;SDS011;62088;50.240;2.696;2023-08-06T07:52:58;6.55;;;2.30;;
73776;SDS011;62088;50.240;2.696;2023-08-06T07:55:25;8.65;;;2.17;;
73776;SDS011;62088;50.240;2.696;2023-08-06T07:57:53;6.10;;;2.20;;
73776;SDS011;62088;50.240;2.696;2023-08-06T08:00:20;5.85;;;2.30;;
73776;SDS011;62088;50.240;2.696;2023-08-06T08:02:47;7.35;;;2.30;;
73776;SDS011;62088;50.240;2.696;2023-08-06T08:05:15;6.03;;;2.20;;
73776;SDS011;62088;50.240;2.696;2023-08-06T08:07:42;4.85;;;2.03;;
73776;SDS011;62088;50.240;2.696;2023-08-06T08:10:10;9.00;;;2.30;;
73776;SDS011;62088;50.240;2.696;2023-08-06T08:12:37;5.53;;;2.15;;
73776;SDS011;62088;50.240;2.696;2023-08-06T08:15:05;5.28;;;1.90;;
73776;SDS011;62088;50.240;2.696;2023-08-06T08:17:32;4.05;;;1.65;;
73776;SDS011;62088;50.240;2.696;2023-08-06T08:20:01;7.55;;;2.05;;
73776;SDS011;62088;50.240;2.696;2023-08-06T08:22:28;6.53;;;1.80;;
73776;SDS011;62088;50.240;2.696;2023-08-06T08:24:55;7.03;;;2.00;;
73776;SDS011;62088;50.240;2.696;2023-08-06T08:27:22;4.57;;;1.63;;
73776;SDS011;62088;50.240;2.696;2023-08-06T08:29:49;4.25;;;1.55;;
73776;SDS011;62088;50.240;2.696;2023-08-06T08:32:16;5.57;;;1.45;;
73776;SDS011;62088;50.240;2.696;2023-08-06T08:34:44;6.60;;;1.75;;
73776;SDS011;62088;50.240;2.696;2023-08-06T08:37:11;5.68;;;1.92;;
73776;SDS011;62088;50.240;2.696;2023-08-06T08:39:39;5.30;;;1.75;;
73776;SDS011;62088;50.240;2.696;2023-08-06T08:42:07;6.72;;;2.20;;
73776;SDS011;62088;50.240;2.696;2023-08-06T08:44:36;7.80;;;2.08;;
73776;SDS011;62088;50.240;2.696;2023-08-06T08:47:10;7.43;;;2.05;;
73776;SDS011;62088;50.240;2.696;2023-08-06T08:49:39;6.43;;;2.10;;
73776;SDS011;62088;50.240;2.696;2023-08-06T08:52:07;5.70;;;2.17;;
73776;SDS011;62088;50.240;2.696;2023-08-06T08:54:41;6.60;;;2.20;;
73776;SDS011;62088;50.240;2.696;2023-08-06T08:57:10;5.35;;;1.70;;
73776;SDS011;62088;50.240;2.696;2023-08-06T08:59:37;6.38;;;2.38;;
73776;SDS011;62088;50.240;2.696;2023-08-06T09:02:04;5.72;;;1.90;;
73776;SDS011;62088;50.240;2.696;2023-08-06T09:04:34;5.03;;;1.75;;
73776;SDS011;62088;50.240;2.696;2023-08-06T09:07:03;4.20;;;1.48;;
73776;SDS011;62088;50.240;2.696;2023-08-06T09:09:36;6.80;;;1.90;;
73776;SDS011;62088;50.240;2.696;2023-08-06T09:12:22;8.60;;;1.80;;
73776;SDS011;62088;50.240;2.696;2023-08-06T09:14:49;4.82;;;1.58;;
73776;SDS011;62088;50.240;2.696;2023-08-06T09:17:24;4.57;;;1.70;;
73776;SDS011;62088;50.240;2.696;2023-08-06T09:19:52;8.48;;;2.10;;
73776;SDS011;62088;50.240;2.696;2023-08-06T09:22:19;5.80;;;1.70;;
73776;SDS011;62088;50.240;2.696;2023-08-06T09:24:50;9.85;;;2.25;;
73776;SDS011;62088;50.240;2.696;2023-08-06T09:27:18;5.22;;;1.80;;
73776;SDS011;62088;50.240;2.696;2023-08-06T09:29:45;3.83;;;1.48;;
73776;SDS011;62088;50.240;2.696;2023-08-06T09:32:12;3.90;;;1.35;;
73776;SDS011;62088;50.240;2.696;2023-08-06T09:34:43;7.40;;;1.95;;
73776;SDS011;62088;50.240;2.696;2023-08-06T09:37:15;6.10;;;1.70;;
73776;SDS011;62088;50.240;2.696;2023-08-06T09:39:45;5.25;;;1.55;;
73776;SDS011;62088;50.240;2.696;2023-08-06T09:42:15;9.32;;;2.03;;
73776;SDS011;62088;50.240;2.696;2023-08-06T09:44:43;7.72;;;1.42;;
73776;SDS011;62088;50.240;2.696;2023-08-06T09:47:10;8.23;;;1.60;;
73776;SDS011;62088;50.240;2.696;2023-08-06T09:49:46;4.55;;;1.33;;
73776;SDS011;62088;50.240;2.696;2023-08-06T09:52:18;7.30;;;1.58;;
73776;SDS011;62088;50.240;2.696;2023-08-06T09:54:46;3.75;;;1.30;;
73776;SDS011;62088;50.240;2.696;2023-08-06T09:57:15;4.22;;;1.52;;
73776;SDS011;62088;50.240;2.696;2023-08-06T09:59:42;9.55;;;1.58;;
73776;SDS011;62088;50.240;2.696;2023-08-06T10:02:13;6.22;;;1.50;;
73776;SDS011;62088;50.240;2.696;2023-08-06T10:04:42;4.55;;;1.35;;
73776;SDS011;62088;50.240;2.696;2023-08-06T10:07:22;4.63;;;1.40;;
73776;SDS011;62088;50.240;2.696;2023-08-06T10:09:51;6.60;;;1.70;;
73776;SDS011;62088;50.240;2.696;2023-08-06T10:24:23;7.30;;;1.40;;
73776;SDS011;62088;50.240;2.696;2023-08-06T10:26:50;4.53;;;1.38;;
73776;SDS011;62088;50.240;2.696;2023-08-06T10:29:35;5.05;;;1.23;;
73776;SDS011;62088;50.240;2.696;2023-08-06T10:32:03;3.45;;;1.02;;
73776;SDS011;62088;50.240;2.696;2023-08-06T10:34:52;3.10;;;1.10;;
73776;SDS011;62088;50.240;2.696;2023-08-06T10:37:20;8.50;;;1.58;;
73776;SDS011;62088;50.240;2.696;2023-08-06T10:39:48;3.03;;;1.30;;
73776;SDS011;62088;50.240;2.696;2023-08-06T10:42:21;4.47;;;1.50;;
73776;SDS011;62088;50.240;2.696;2023-08-06T10:47:45;6.18;;;1.45;;
73776;SDS011;62088;50.240;2.696;2023-08-06T10:50:13;4.25;;;1.35;;
73776;SDS011;62088;50.240;2.696;2023-08-06T10:52:46;4.55;;;1.48;;
73776;SDS011;62088;50.240;2.696;2023-08-06T10:55:14;3.45;;;1.25;;
73776;SDS011;62088;50.240;2.696;2023-08-06T10:57:48;4.63;;;1.30;;
73776;SDS011;62088;50.240;2.696;2023-08-06T11:00:15;4.20;;;1.58;;
73776;SDS011;62088;50.240;2.696;2023-08-06T11:02:42;3.47;;;1.23;;
73776;SDS011;62088;50.240;2.696;2023-08-06T11:05:12;7.80;;;1.80;;
73776;SDS011;62088;50.240;2.696;2023-08-06T11:07:40;3.95;;;1.35;;
73776;SDS011;62088;50.240;2.696;2023-08-06T11:10:07;3.83;;;1.20;;
73776;SDS011;62088;50.240;2.696;2023-08-06T11:12:36;3.83;;;1.52;;
73776;SDS011;62088;50.240;2.696;2023-08-06T11:15:04;4.85;;;1.13;;
73776;SDS011;62088;50.240;2.696;2023-08-06T11:17:32;4.20;;;1.30;;
73776;SDS011;62088;50.240;2.696;2023-08-06T11:20:00;3.30;;;1.02;;
73776;SDS011;62088;50.240;2.696;2023-08-06T11:22:29;8.52;;;1.42;;
73776;SDS011;62088;50.240;2.696;2023-08-06T11:24:56;5.07;;;1.70;;
73776;SDS011;62088;50.240;2.696;2023-08-06T11:27:25;4.05;;;1.42;;
73776;SDS011;62088;50.240;2.696;2023-08-06T11:29:53;5.47;;;1.10;;
73776;SDS011;62088;50.240;2.696;2023-08-06T11:32:20;2.55;;;1.27;;
73776;SDS011;62088;50.240;2.696;2023-08-06T11:34:47;3.63;;;1.67;;
73776;SDS011;62088;50.240;2.696;2023-08-06T11:37:14;4.75;;;1.40;;
73776;SDS011;62088;50.240;2.696;2023-08-06T11:39:44;5.15;;;1.40;;
73776;SDS011;62088;50.240;2.696;2023-08-06T11:42:14;2.63;;;1.20;;
73776;SDS011;62088;50.240;2.696;2023-08-06T11:44:41;4.05;;;1.27;;
73776;SDS011;62088;50.240;2.696;2023-08-06T11:47:13;4.50;;;1.30;;
73776;SDS011;62088;50.240;2.696;2023-08-06T11:49:48;3.20;;;1.35;;
73776;SDS011;62088;50.240;2.696;2023-08-06T11:52:19;4.63;;;1.50;;
73776;SDS011;62088;50.240;2.696;2023-08-06T11:55:05;4.75;;;1.20;;
73776;SDS011;62088;50.240;2.696;2023-08-06T11:57:44;4.45;;;1.33;;
73776;SDS011;62088;50.240;2.696;2023-08-06T12:00:12;4.60;;;1.45;;
73776;SDS011;62088;50.240;2.696;2023-08-06T12:02:44;4.65;;;1.30;;
73776;SDS011;62088;50.240;2.696;2023-08-06T12:05:12;2.45;;;1.10;;
73776;SDS011;62088;50.240;2.696;2023-08-06T12:07:44;2.50;;;1.25;;
73776;SDS011;62088;50.240;2.696;2023-08-06T12:10:13;3.75;;;1.30;;
73776;SDS011;62088;50.240;2.696;2023-08-06T12:12:40;5.13;;;1.30;;
73776;SDS011;62088;50.240;2.696;2023-08-06T12:15:09;2.78;;;1.20;;
73776;SDS011;62088;50.240;2.696;2023-08-06T12:35:54;2.95;;;1.00;;
73776;SDS011;62088;50.240;2.696;2023-08-06T12:38:21;2.80;;;1.08;;
73776;SDS011;62088;50.240;2.696;2023-08-06T12:51:54;2.88;;;1.10;;
73776;SDS011;62088;50.240;2.696;2023-08-06T12:54:23;4.38;;;1.30;;
73776;SDS011;62088;50.240;2.696;2023-08-06T12:56:50;3.50;;;1.17;;
73776;SDS011;62088;50.240;2.696;2023-08-06T12:59:17;5.53;;;1.20;;
73776;SDS011;62088;50.240;2.696;2023-08-06T13:01:44;4.05;;;1.35;;
73776;SDS011;62088;50.240;2.696;2023-08-06T13:04:13;4.45;;;1.30;;
73776;SDS011;62088;50.240;2.696;2023-08-06T13:06:48;3.50;;;1.52;;
73776;SDS011;62088;50.240;2.696;2023-08-06T13:09:15;3.58;;;1.10;;
73776;SDS011;62088;50.240;2.696;2023-08-06T13:11:42;3.47;;;1.15;;
73776;SDS011;62088;50.240;2.696;2023-08-06T13:14:13;3.05;;;1.30;;
73776;SDS011;62088;50.240;2.696;2023-08-06T13:16:41;3.63;;;1.25;;
73776;SDS011;62088;50.240;2.696;2023-08-06T13:19:09;5.10;;;1.10;;
73776;SDS011;62088;50.240;2.696;2023-08-06T13:24:07;3.22;;;1.25;;
73776;SDS011;62088;50.240;2.696;2023-08-06T13:26:35;4.22;;;1.10;;
73776;SDS011;62088;50.240;2.696;2023-08-06T13:29:02;3.45;;;1.20;;
73776;SDS011;62088;50.240;2.696;2023-08-06T13:31:29;3.47;;;1.05;;
73776;SDS011;62088;50.240;2.696;2023-08-06T13:33:56;3.65;;;1.17;;
73776;SDS011;62088;50.240;2.696;2023-08-06T13:36:25;4.90;;;1.23;;
73776;SDS011;62088;50.240;2.696;2023-08-06T13:38:53;4.13;;;1.35;;
73776;SDS011;62088;50.240;2.696;2023-08-06T13:41:20;3.08;;;1.33;;
73776;SDS011;62088;50.240;2.696;2023-08-06T13:43:48;4.93;;;1.35;;
73776;SDS011;62088;50.240;2.696;2023-08-06T13:46:15;3.55;;;1.30;;
73776;SDS011;62088;50.240;2.696;2023-08-06T13:48:47;2.55;;;1.10;;
73776;SDS011;62088;50.240;2.696;2023-08-06T13:51:18;5.47;;;1.38;;
73776;SDS011;62088;50.240;2.696;2023-08-06T13:53:45;5.35;;;1.30;;
73776;SDS011;62088;50.240;2.696;2023-08-06T13:56:12;3.28;;;1.08;;
73776;SDS011;62088;50.240;2.696;2023-08-06T13:58:41;3.90;;;1.23;;
73776;SDS011;62088;50.240;2.696;2023-08-06T14:01:12;3.90;;;1.50;;
73776;SDS011;62088;50.240;2.696;2023-08-06T14:03:40;3.60;;;1.38;;
73776;SDS011;62088;50.240;2.696;2023-08-06T14:06:07;3.38;;;1.17;;
73776;SDS011;62088;50.240;2.696;2023-08-06T14:08:34;2.50;;;1.20;;
73776;SDS011;62088;50.240;2.696;2023-08-06T14:11:01;5.20;;;1.40;;
73776;SDS011;62088;50.240;2.696;2023-08-06T14:13:28;5.13;;;1.42;;
73776;SDS011;62088;50.240;2.696;2023-08-06T14:15:55;3.60;;;1.30;;
73776;SDS011;62088;50.240;2.696;2023-08-06T14:18:22;2.97;;;1.35;;
73776;SDS011;62088;50.240;2.696;2023-08-06T14:20:49;3.67;;;1.40;;
73776;SDS011;62088;50.240;2.696;2023-08-06T14:23:16;5.65;;;1.25;;
73776;SDS011;62088;50.240;2.696;2023-08-06T14:25:43;2.88;;;1.25;;
73776;SDS011;62088;50.240;2.696;2023-08-06T14:28:10;3.97;;;1.45;;
73776;SDS011;62088;50.240;2.696;2023-08-06T14:30:37;3.22;;;1.10;;
73776;SDS011;62088;50.240;2.696;2023-08-06T14:33:04;3.00;;;1.35;;
73776;SDS011;62088;50.240;2.696;2023-08-06T14:35:51;5.65;;;1.63;;
73776;SDS011;62088;50.240;2.696;2023-08-06T14:38:18;3.85;;;1.30;;
73776;SDS011;62088;50.240;2.696;2023-08-06T14:40:45;4.88;;;1.50;;
73776;SDS011;62088;50.240;2.696;2023-08-06T14:43:12;4.10;;;1.50;;
73776;SDS011;62088;50.240;2.696;2023-08-06T14:45:41;6.32;;;1.80;;
73776;SDS011;62088;50.240;2.696;2023-08-06T14:48:08;3.28;;;1.42;;
73776;SDS011;62088;50.240;2.696;2023-08-06T14:50:35;4.85;;;2.08;;
73776;SDS011;62088;50.240;2.696;2023-08-06T14:53:03;4.28;;;1.60;;
73776;SDS011;62088;50.240;2.696;2023-08-06T14:55:31;7.13;;;2.78;;
73776;SDS011;62088;50.240;2.696;2023-08-06T14:58:00;4.55;;;2.10;;
73776;SDS011;62088;50.240;2.696;2023-08-06T15:00:27;6.18;;;3.50;;
73776;SDS011;62088;50.240;2.696;2023-08-06T15:02:55;6.00;;;2.05;;
73776;SDS011;62088;50.240;2.696;2023-08-06T15:05:22;6.93;;;3.75;;
73776;SDS011;62088;50.240;2.696;2023-08-06T15:07:49;4.85;;;2.30;;
73776;SDS011;62088;50.240;2.696;2023-08-06T15:10:16;7.05;;;2.70;;
73776;SDS011;62088;50.240;2.696;2023-08-06T15:12:46;6.20;;;2.70;;
73776;SDS011;62088;50.240;2.696;2023-08-06T15:15:13;5.13;;;2.28;;
73776;SDS011;62088;50.240;2.696;2023-08-06T15:17:40;5.25;;;2.25;;
73776;SDS011;62088;50.240;2.696;2023-08-06T15:20:08;5.90;;;2.03;;
73776;SDS011;62088;50.240;2.696;2023-08-06T15:22:35;6.05;;;3.15;;
73776;SDS011;62088;50.240;2.696;2023-08-06T15:25:02;4.78;;;2.15;;
73776;SDS011;62088;50.240;2.696;2023-08-06T15:27:30;5.30;;;2.25;;
73776;SDS011;62088;50.240;2.696;2023-08-06T15:29:59;6.07;;;2.22;;
73776;SDS011;62088;50.240;2.696;2023-08-06T15:32:26;3.63;;;1.70;;
73776;SDS011;62088;50.240;2.696;2023-08-06T15:34:54;4.25;;;1.80;;
73776;SDS011;62088;50.240;2.696;2023-08-06T15:37:21;4.50;;;1.73;;
73776;SDS011;62088;50.240;2.696;2023-08-06T15:39:49;3.83;;;1.73;;
73776;SDS011;62088;50.240;2.696;2023-08-06T15:42:16;3.38;;;1.70;;
73776;SDS011;62088;50.240;2.696;2023-08-06T15:44:43;4.97;;;1.95;;